Main page
METAR-TAF:

METAR-TAF

Airports :

Alta Floresta Airport

Alta Floresta, Mato Grosso, Brazil

latitude: 09-52S, longitude: 056-06W, elevation: 288 m

Current weather observation

The report was made 3 hours and 27 minutes ago, at 21:00 UTC
Wind 1 kt from the North
Temperature 30°C
Humidity 75%
Pressure 1008 hPa
Visibility 10 km or more
Few clouds at a height of 2800 ft
Few clouds at a height of 3000 ft, Towering cumulus.
Scattered clouds at a height of 10000 ft

METAR: SBAT 172100Z 01001KT 9999 FEW028 FEW030TCU SCT100 30/25 Q1008

Time: 20:27 (00:27 UTC)

Forecast

The report was made 9 hours and 27 minutes ago, at 15:00 UTC
Forecast valid from 17 at 18 UTC to 18 at 06 UTC
Wind 5 kt from the Northeast
Visibility 10 km or more
Few clouds at a height of 3000 ft, Towering cumulus.

TAF: SBAT 171500Z 1718/1806 04005KT 9999 FEW030TCU TX34/1718Z TN29/1721Z RMK PHD

Weather observations and forecasts of more than 4000 airports (METAR and TAF reports).

The available stations are represented by yellow and red dots on the map.

Hover mouse over dot to see the name of the station.

Then click to see weather observations and forecasts.

To change the map : click on the green buttons with a black cross to zoom in, on the green button with a dash to zoom out, or on the green arrows for adjacent maps.


METAR-TAF: